Maldives Meteorological Service

METAR

Station
VRMM
METAR VRMM 171300Z 24010KT 9999 SCT016 FEW017CB BKN110 29/25 Q1008 CB NNE,SE,W TEMPO 5000 -TSRA=
VRMH
METAR VRMH 171300Z 26009KT 9999 FEW018TCU SCT270 29/26 Q1008=
VRMK
METAR VRMK 171300Z VRB01KT 9999 FEW018TCU BKN260 30/25 Q1008=
VRMT
METAR VRMT 171300Z 00000KT 9999 FEW018 FEW019CB BKN260 29/26 Q1008 CB NE=
VRMG
METAR VRMG 171300Z VRB02KT 9999 FEW018 BKN250 29/26 Q1009 NOSIG=
Last Updated : 2018-07-17 18:03:03

SPECI

Station
VRMM
VRMH
VRMK
VRMT
VRMG
Last Updated : 2018-07-17 18:03:03